Portada
METAR-TAF:

METAR-TAF

Aeropuertos :

Colby, Kansas, Estados Unidos

latitud: 39-25-39N, longitud: 101-02-48W, altitud: 971 m

Observación

El informe se hizo hace 14 minutos, a las 05:55 UTC
Viento 22 kt del sur con ráfagas de 31 kt
Temperatura 26°C
Humedad 34%
Presión 1009 hPa
Visibilidad: 16.1 km
Cielo despejado

METAR: KCBK 070555Z AUTO 17022G31KT 10SM CLR 26/09 A2980 RMK AO2 PWINO

Hora: 01:09 (06:09 UTC)


TAF: falta

Observaciones y pronósticos meteorológicos de más de 4000 aeropuertos (mensajes METAR y TAF).

Los puntos amarillos y rojos representan las estaciones disponibles.

Ponga el ratón en el punto deseado para ver el nombre de la estación.

Haga clic para ver las observaciones y los pronósticos meteorológicos.

Para cambiar el mapa : haga clic en los botones verdes con una cruz de color negro para hacer un zoom, en el botón verde con un guión para alejar o en las flechas verdes para mapas adyacentes.


METAR-TAF: